sensor_id;sensor_type;location;lat;lon;timestamp;temperature;humidity
35111;DHT22;21290;50.158;8.658;2023-01-05T00:01:22;10.40;99.90
35111;DHT22;21290;50.158;8.658;2023-01-05T00:03:48;10.40;99.90
35111;DHT22;21290;50.158;8.658;2023-01-05T00:06:15;10.40;99.90
35111;DHT22;21290;50.158;8.658;2023-01-05T00:08:43;10.40;99.90
35111;DHT22;21290;50.158;8.658;2023-01-05T00:11:11;10.40;99.90
35111;DHT22;21290;50.158;8.658;2023-01-05T00:13:56;10.40;99.90
35111;DHT22;21290;50.158;8.658;2023-01-05T00:16:42;10.30;99.90
35111;DHT22;21290;50.158;8.658;2023-01-05T00:19:27;10.30;99.90
35111;DHT22;21290;50.158;8.658;2023-01-05T00:22:19;10.30;99.90
35111;DHT22;21290;50.158;8.658;2023-01-05T00:27:41;10.20;99.90
35111;DHT22;21290;50.158;8.658;2023-01-05T00:30:08;10.20;99.90
35111;DHT22;21290;50.158;8.658;2023-01-05T00:32:35;10.20;99.90
35111;DHT22;21290;50.158;8.658;2023-01-05T00:35:02;10.20;99.90
35111;DHT22;21290;50.158;8.658;2023-01-05T00:37:30;10.20;99.90
35111;DHT22;21290;50.158;8.658;2023-01-05T00:39:57;10.20;99.90
35111;DHT22;21290;50.158;8.658;2023-01-05T00:42:24;10.20;99.90
35111;DHT22;21290;50.158;8.658;2023-01-05T00:44:50;10.20;99.90
35111;DHT22;21290;50.158;8.658;2023-01-05T00:47:16;10.20;99.90
35111;DHT22;21290;50.158;8.658;2023-01-05T00:49:43;10.20;99.90
35111;DHT22;21290;50.158;8.658;2023-01-05T00:52:09;10.20;99.90
35111;DHT22;21290;50.158;8.658;2023-01-05T00:54:36;10.10;99.90
35111;DHT22;21290;50.158;8.658;2023-01-05T00:57:02;10.20;99.90
35111;DHT22;21290;50.158;8.658;2023-01-05T00:59:31;10.10;99.90
35111;DHT22;21290;50.158;8.658;2023-01-05T01:01:58;10.10;99.90
35111;DHT22;21290;50.158;8.658;2023-01-05T01:04:24;10.10;99.90
35111;DHT22;21290;50.158;8.658;2023-01-05T01:06:51;10.10;99.90
35111;DHT22;21290;50.158;8.658;2023-01-05T01:09:19;10.10;99.90
35111;DHT22;21290;50.158;8.658;2023-01-05T01:11:46;10.10;99.90
35111;DHT22;21290;50.158;8.658;2023-01-05T01:14:13;10.20;99.90
35111;DHT22;21290;50.158;8.658;2023-01-05T01:16:40;10.10;99.90
35111;DHT22;21290;50.158;8.658;2023-01-05T01:19:07;10.10;99.90
35111;DHT22;21290;50.158;8.658;2023-01-05T01:21:34;10.20;99.90
35111;DHT22;21290;50.158;8.658;2023-01-05T01:24:01;10.20;99.90
35111;DHT22;21290;50.158;8.658;2023-01-05T01:26:27;10.20;99.90
35111;DHT22;21290;50.158;8.658;2023-01-05T01:28:54;10.20;99.90
35111;DHT22;21290;50.158;8.658;2023-01-05T01:31:20;10.20;99.90
35111;DHT22;21290;50.158;8.658;2023-01-05T01:33:47;10.20;99.90
35111;DHT22;21290;50.158;8.658;2023-01-05T01:36:13;10.30;99.90
35111;DHT22;21290;50.158;8.658;2023-01-05T01:38:40;10.30;99.90
35111;DHT22;21290;50.158;8.658;2023-01-05T01:41:06;10.30;99.90
35111;DHT22;21290;50.158;8.658;2023-01-05T01:43:41;10.30;99.90
35111;DHT22;21290;50.158;8.658;2023-01-05T01:46:08;10.30;99.90
35111;DHT22;21290;50.158;8.658;2023-01-05T01:48:35;10.30;99.90
35111;DHT22;21290;50.158;8.658;2023-01-05T01:51:05;10.30;99.90
35111;DHT22;21290;50.158;8.658;2023-01-05T01:53:37;10.30;99.90
35111;DHT22;21290;50.158;8.658;2023-01-05T01:56:06;10.40;99.90
35111;DHT22;21290;50.158;8.658;2023-01-05T01:58:34;10.40;99.90
35111;DHT22;21290;50.158;8.658;2023-01-05T02:01:01;10.40;99.90
35111;DHT22;21290;50.158;8.658;2023-01-05T02:03:28;10.40;99.90
35111;DHT22;21290;50.158;8.658;2023-01-05T02:05:55;10.40;99.90
35111;DHT22;21290;50.158;8.658;2023-01-05T02:08:22;10.40;99.90
35111;DHT22;21290;50.158;8.658;2023-01-05T02:16:19;10.40;99.90
35111;DHT22;21290;50.158;8.658;2023-01-05T02:18:52;10.40;99.90
35111;DHT22;21290;50.158;8.658;2023-01-05T02:21:30;10.50;99.90
35111;DHT22;21290;50.158;8.658;2023-01-05T02:24:11;10.50;99.90
35111;DHT22;21290;50.158;8.658;2023-01-05T02:26:48;10.40;99.90
35111;DHT22;21290;50.158;8.658;2023-01-05T02:32:41;10.40;99.90
35111;DHT22;21290;50.158;8.658;2023-01-05T02:39:52;10.50;99.90
35111;DHT22;21290;50.158;8.658;2023-01-05T02:42:22;10.40;99.90
35111;DHT22;21290;50.158;8.658;2023-01-05T02:44:49;10.40;99.90
35111;DHT22;21290;50.158;8.658;2023-01-05T02:49:59;10.40;99.90
35111;DHT22;21290;50.158;8.658;2023-01-05T02:52:26;10.40;99.90
35111;DHT22;21290;50.158;8.658;2023-01-05T02:54:54;10.40;99.90
35111;DHT22;21290;50.158;8.658;2023-01-05T02:57:25;10.40;99.90
35111;DHT22;21290;50.158;8.658;2023-01-05T03:00:13;10.30;99.90
35111;DHT22;21290;50.158;8.658;2023-01-05T03:02:41;10.30;99.90
35111;DHT22;21290;50.158;8.658;2023-01-05T03:05:11;10.30;99.90
35111;DHT22;21290;50.158;8.658;2023-01-05T03:07:39;10.30;99.90
35111;DHT22;21290;50.158;8.658;2023-01-05T03:10:07;10.30;99.90
35111;DHT22;21290;50.158;8.658;2023-01-05T03:12:54;10.20;99.90
35111;DHT22;21290;50.158;8.658;2023-01-05T03:15:40;10.30;99.90
35111;DHT22;21290;50.158;8.658;2023-01-05T03:18:09;10.30;99.90
35111;DHT22;21290;50.158;8.658;2023-01-05T03:20:39;10.30;99.90
35111;DHT22;21290;50.158;8.658;2023-01-05T03:23:07;10.30;99.90
35111;DHT22;21290;50.158;8.658;2023-01-05T03:25:53;10.30;99.90
35111;DHT22;21290;50.158;8.658;2023-01-05T03:28:52;10.40;99.90
35111;DHT22;21290;50.158;8.658;2023-01-05T03:31:42;10.40;99.90
35111;DHT22;21290;50.158;8.658;2023-01-05T03:34:30;10.50;99.90
35111;DHT22;21290;50.158;8.658;2023-01-05T03:37:22;10.50;99.90
35111;DHT22;21290;50.158;8.658;2023-01-05T03:39:50;10.60;99.90
35111;DHT22;21290;50.158;8.658;2023-01-05T03:42:17;10.60;99.90
35111;DHT22;21290;50.158;8.658;2023-01-05T03:44:44;10.70;99.90
35111;DHT22;21290;50.158;8.658;2023-01-05T03:47:11;10.70;99.90
35111;DHT22;21290;50.158;8.658;2023-01-05T03:49:39;10.70;99.90
35111;DHT22;21290;50.158;8.658;2023-01-05T03:52:05;10.80;99.90
35111;DHT22;21290;50.158;8.658;2023-01-05T03:54:32;10.80;99.90
35111;DHT22;21290;50.158;8.658;2023-01-05T03:56:58;10.80;99.90
35111;DHT22;21290;50.158;8.658;2023-01-05T03:59:25;10.80;99.90
35111;DHT22;21290;50.158;8.658;2023-01-05T04:01:51;10.80;99.90
35111;DHT22;21290;50.158;8.658;2023-01-05T04:04:18;10.90;99.90
35111;DHT22;21290;50.158;8.658;2023-01-05T04:06:45;10.90;99.90
35111;DHT22;21290;50.158;8.658;2023-01-05T04:09:11;10.90;99.90
35111;DHT22;21290;50.158;8.658;2023-01-05T04:11:38;10.90;99.90
35111;DHT22;21290;50.158;8.658;2023-01-05T04:14:04;10.90;99.90
35111;DHT22;21290;50.158;8.658;2023-01-05T04:16:31;10.80;99.90
35111;DHT22;21290;50.158;8.658;2023-01-05T04:18:57;10.80;99.90
35111;DHT22;21290;50.158;8.658;2023-01-05T04:21:24;10.90;99.90
35111;DHT22;21290;50.158;8.658;2023-01-05T04:23:50;10.90;99.90
35111;DHT22;21290;50.158;8.658;2023-01-05T04:26:17;10.90;99.90
35111;DHT22;21290;50.158;8.658;2023-01-05T04:28:43;10.90;99.90
35111;DHT22;21290;50.158;8.658;2023-01-05T04:31:10;10.80;99.90
35111;DHT22;21290;50.158;8.658;2023-01-05T04:33:36;10.80;99.90
35111;DHT22;21290;50.158;8.658;2023-01-05T04:36:05;10.80;99.90
35111;DHT22;21290;50.158;8.658;2023-01-05T04:38:32;10.80;99.90
35111;DHT22;21290;50.158;8.658;2023-01-05T04:40:59;10.80;99.90
35111;DHT22;21290;50.158;8.658;2023-01-05T04:43:25;10.80;99.90
35111;DHT22;21290;50.158;8.658;2023-01-05T04:45:52;10.80;99.90
35111;DHT22;21290;50.158;8.658;2023-01-05T04:48:18;10.80;99.90
35111;DHT22;21290;50.158;8.658;2023-01-05T04:50:50;10.80;99.90
35111;DHT22;21290;50.158;8.658;2023-01-05T04:53:17;10.80;99.90
35111;DHT22;21290;50.158;8.658;2023-01-05T04:55:44;10.80;99.90
35111;DHT22;21290;50.158;8.658;2023-01-05T04:58:10;10.80;99.90
35111;DHT22;21290;50.158;8.658;2023-01-05T05:00:37;10.80;99.90
35111;DHT22;21290;50.158;8.658;2023-01-05T05:03:04;10.80;99.90
35111;DHT22;21290;50.158;8.658;2023-01-05T05:05:31;10.80;99.90
35111;DHT22;21290;50.158;8.658;2023-01-05T05:07:57;10.80;99.90
35111;DHT22;21290;50.158;8.658;2023-01-05T05:10:24;10.80;99.90
35111;DHT22;21290;50.158;8.658;2023-01-05T05:12:50;10.80;99.90
35111;DHT22;21290;50.158;8.658;2023-01-05T05:15:17;10.80;99.90
35111;DHT22;21290;50.158;8.658;2023-01-05T05:17:44;10.70;99.90
35111;DHT22;21290;50.158;8.658;2023-01-05T05:20:10;10.70;99.90
35111;DHT22;21290;50.158;8.658;2023-01-05T05:22:37;10.70;99.90
35111;DHT22;21290;50.158;8.658;2023-01-05T05:25:04;10.70;99.90
35111;DHT22;21290;50.158;8.658;2023-01-05T05:27:30;10.70;99.90
35111;DHT22;21290;50.158;8.658;2023-01-05T05:29:57;10.70;99.90
35111;DHT22;21290;50.158;8.658;2023-01-05T05:32:23;10.70;99.90
35111;DHT22;21290;50.158;8.658;2023-01-05T05:34:50;10.70;99.90
35111;DHT22;21290;50.158;8.658;2023-01-05T05:37:16;10.60;99.90
35111;DHT22;21290;50.158;8.658;2023-01-05T05:39:43;10.60;99.90
35111;DHT22;21290;50.158;8.658;2023-01-05T05:42:09;10.60;99.90
35111;DHT22;21290;50.158;8.658;2023-01-05T05:44:36;10.60;99.90
35111;DHT22;21290;50.158;8.658;2023-01-05T05:47:03;10.60;99.90
35111;DHT22;21290;50.158;8.658;2023-01-05T05:49:29;10.60;99.90
35111;DHT22;21290;50.158;8.658;2023-01-05T05:51:56;10.60;99.90
35111;DHT22;21290;50.158;8.658;2023-01-05T05:54:22;10.60;99.90
35111;DHT22;21290;50.158;8.658;2023-01-05T05:56:49;10.60;99.90
35111;DHT22;21290;50.158;8.658;2023-01-05T05:59:15;10.60;99.90
35111;DHT22;21290;50.158;8.658;2023-01-05T06:01:42;10.60;99.90
35111;DHT22;21290;50.158;8.658;2023-01-05T06:04:08;10.60;99.90
35111;DHT22;21290;50.158;8.658;2023-01-05T06:06:35;10.60;99.90
35111;DHT22;21290;50.158;8.658;2023-01-05T06:09:01;10.60;99.90
35111;DHT22;21290;50.158;8.658;2023-01-05T06:11:28;10.60;99.90
35111;DHT22;21290;50.158;8.658;2023-01-05T06:13:54;10.60;99.90
35111;DHT22;21290;50.158;8.658;2023-01-05T06:16:21;10.60;99.90
35111;DHT22;21290;50.158;8.658;2023-01-05T06:18:48;10.70;99.90
35111;DHT22;21290;50.158;8.658;2023-01-05T06:21:14;10.60;99.90
35111;DHT22;21290;50.158;8.658;2023-01-05T06:23:41;10.70;99.90
35111;DHT22;21290;50.158;8.658;2023-01-05T06:26:07;10.70;99.90
35111;DHT22;21290;50.158;8.658;2023-01-05T06:28:34;10.60;99.90
35111;DHT22;21290;50.158;8.658;2023-01-05T06:31:00;10.70;99.90
35111;DHT22;21290;50.158;8.658;2023-01-05T06:33:27;10.60;99.90
35111;DHT22;21290;50.158;8.658;2023-01-05T06:35:53;10.60;99.90
35111;DHT22;21290;50.158;8.658;2023-01-05T06:38:20;10.70;99.90
35111;DHT22;21290;50.158;8.658;2023-01-05T06:40:46;10.60;99.90
35111;DHT22;21290;50.158;8.658;2023-01-05T06:43:13;10.60;99.90
35111;DHT22;21290;50.158;8.658;2023-01-05T06:45:40;10.70;99.90
35111;DHT22;21290;50.158;8.658;2023-01-05T06:48:06;10.70;99.90
35111;DHT22;21290;50.158;8.658;2023-01-05T06:50:33;10.60;99.90
35111;DHT22;21290;50.158;8.658;2023-01-05T06:52:59;10.60;99.90
35111;DHT22;21290;50.158;8.658;2023-01-05T06:55:26;10.60;99.90
35111;DHT22;21290;50.158;8.658;2023-01-05T06:57:53;10.60;99.90
35111;DHT22;21290;50.158;8.658;2023-01-05T07:00:26;10.60;99.90
35111;DHT22;21290;50.158;8.658;2023-01-05T07:02:52;10.60;99.90
35111;DHT22;21290;50.158;8.658;2023-01-05T07:05:19;10.60;99.90
35111;DHT22;21290;50.158;8.658;2023-01-05T07:07:46;10.60;99.90
35111;DHT22;21290;50.158;8.658;2023-01-05T07:10:12;10.60;99.90
35111;DHT22;21290;50.158;8.658;2023-01-05T07:12:39;10.60;99.90
35111;DHT22;21290;50.158;8.658;2023-01-05T07:15:05;10.60;99.90
35111;DHT22;21290;50.158;8.658;2023-01-05T07:17:32;10.60;99.90
35111;DHT22;21290;50.158;8.658;2023-01-05T07:19:59;10.60;99.90
35111;DHT22;21290;50.158;8.658;2023-01-05T07:22:25;10.60;99.90
35111;DHT22;21290;50.158;8.658;2023-01-05T07:24:53;10.60;99.90
35111;DHT22;21290;50.158;8.658;2023-01-05T07:27:20;10.60;99.90
35111;DHT22;21290;50.158;8.658;2023-01-05T07:29:46;10.60;99.90
35111;DHT22;21290;50.158;8.658;2023-01-05T07:32:13;10.60;99.90
35111;DHT22;21290;50.158;8.658;2023-01-05T07:34:39;10.60;99.90
35111;DHT22;21290;50.158;8.658;2023-01-05T07:37:06;10.60;99.90
35111;DHT22;21290;50.158;8.658;2023-01-05T07:39:32;10.60;99.90
35111;DHT22;21290;50.158;8.658;2023-01-05T07:41:59;10.60;99.90
35111;DHT22;21290;50.158;8.658;2023-01-05T07:44:25;10.50;99.90
35111;DHT22;21290;50.158;8.658;2023-01-05T07:46:52;10.50;99.90
35111;DHT22;21290;50.158;8.658;2023-01-05T07:49:19;10.50;99.90
35111;DHT22;21290;50.158;8.658;2023-01-05T07:51:45;10.50;99.90
35111;DHT22;21290;50.158;8.658;2023-01-05T07:54:12;10.50;99.90
35111;DHT22;21290;50.158;8.658;2023-01-05T07:56:38;10.50;99.90
35111;DHT22;21290;50.158;8.658;2023-01-05T07:59:05;10.50;99.90
35111;DHT22;21290;50.158;8.658;2023-01-05T08:01:31;10.50;99.90
35111;DHT22;21290;50.158;8.658;2023-01-05T08:03:58;10.50;99.90
35111;DHT22;21290;50.158;8.658;2023-01-05T08:06:24;10.50;99.90
35111;DHT22;21290;50.158;8.658;2023-01-05T08:08:51;10.50;99.90
35111;DHT22;21290;50.158;8.658;2023-01-05T08:11:18;10.50;99.90
35111;DHT22;21290;50.158;8.658;2023-01-05T08:13:46;10.60;99.90
35111;DHT22;21290;50.158;8.658;2023-01-05T08:16:26;10.60;99.90
35111;DHT22;21290;50.158;8.658;2023-01-05T08:18:54;10.70;99.90
35111;DHT22;21290;50.158;8.658;2023-01-05T08:21:21;10.80;99.90
35111;DHT22;21290;50.158;8.658;2023-01-05T08:23:48;10.80;99.90
35111;DHT22;21290;50.158;8.658;2023-01-05T08:26:16;10.80;99.90
35111;DHT22;21290;50.158;8.658;2023-01-05T08:28:43;10.80;99.90
35111;DHT22;21290;50.158;8.658;2023-01-05T08:31:14;10.80;99.90
35111;DHT22;21290;50.158;8.658;2023-01-05T08:33:42;10.80;99.90
35111;DHT22;21290;50.158;8.658;2023-01-05T08:36:09;10.80;99.90
35111;DHT22;21290;50.158;8.658;2023-01-05T08:38:37;10.80;99.90
35111;DHT22;21290;50.158;8.658;2023-01-05T08:41:03;10.80;99.90
35111;DHT22;21290;50.158;8.658;2023-01-05T08:43:30;10.80;99.90
35111;DHT22;21290;50.158;8.658;2023-01-05T08:45:57;10.70;99.90
35111;DHT22;21290;50.158;8.658;2023-01-05T08:48:23;10.70;99.90
35111;DHT22;21290;50.158;8.658;2023-01-05T08:50:50;10.70;99.90
35111;DHT22;21290;50.158;8.658;2023-01-05T08:53:16;10.70;99.90
35111;DHT22;21290;50.158;8.658;2023-01-05T08:55:43;10.70;99.90
35111;DHT22;21290;50.158;8.658;2023-01-05T08:58:09;10.80;99.90
35111;DHT22;21290;50.158;8.658;2023-01-05T09:00:36;10.70;99.90
35111;DHT22;21290;50.158;8.658;2023-01-05T09:03:02;10.70;99.90
35111;DHT22;21290;50.158;8.658;2023-01-05T09:05:29;10.70;99.90
35111;DHT22;21290;50.158;8.658;2023-01-05T09:07:56;10.70;99.90
35111;DHT22;21290;50.158;8.658;2023-01-05T09:10:22;10.70;99.90
35111;DHT22;21290;50.158;8.658;2023-01-05T09:12:49;10.70;99.90
35111;DHT22;21290;50.158;8.658;2023-01-05T09:15:15;10.70;99.90
35111;DHT22;21290;50.158;8.658;2023-01-05T09:17:42;10.70;99.90
35111;DHT22;21290;50.158;8.658;2023-01-05T09:20:09;10.70;99.90
35111;DHT22;21290;50.158;8.658;2023-01-05T09:22:35;10.60;99.90
35111;DHT22;21290;50.158;8.658;2023-01-05T09:25:02;10.60;99.90
35111;DHT22;21290;50.158;8.658;2023-01-05T09:27:29;10.70;99.90
35111;DHT22;21290;50.158;8.658;2023-01-05T09:29:56;10.80;99.90
35111;DHT22;21290;50.158;8.658;2023-01-05T09:32:22;10.80;99.90
35111;DHT22;21290;50.158;8.658;2023-01-05T09:34:49;10.90;99.90
35111;DHT22;21290;50.158;8.658;2023-01-05T09:37:16;10.90;99.90
35111;DHT22;21290;50.158;8.658;2023-01-05T09:39:42;10.90;99.90
35111;DHT22;21290;50.158;8.658;2023-01-05T09:42:16;11.10;99.90
35111;DHT22;21290;50.158;8.658;2023-01-05T09:44:49;11.20;99.90
35111;DHT22;21290;50.158;8.658;2023-01-05T09:47:36;11.30;99.90
35111;DHT22;21290;50.158;8.658;2023-01-05T09:50:04;11.30;99.90
35111;DHT22;21290;50.158;8.658;2023-01-05T09:52:31;11.40;99.90
35111;DHT22;21290;50.158;8.658;2023-01-05T09:55:17;11.60;99.90
35111;DHT22;21290;50.158;8.658;2023-01-05T09:57:51;12.00;99.90
35111;DHT22;21290;50.158;8.658;2023-01-05T10:00:18;12.70;99.90
35111;DHT22;21290;50.158;8.658;2023-01-05T10:02:58;13.00;99.90
35111;DHT22;21290;50.158;8.658;2023-01-05T10:05:26;12.90;99.90
35111;DHT22;21290;50.158;8.658;2023-01-05T10:08:03;12.60;99.90
35111;DHT22;21290;50.158;8.658;2023-01-05T10:10:44;12.40;99.90
35111;DHT22;21290;50.158;8.658;2023-01-05T10:13:26;12.20;99.90
35111;DHT22;21290;50.158;8.658;2023-01-05T10:15:53;12.40;99.90
35111;DHT22;21290;50.158;8.658;2023-01-05T10:18:21;12.80;99.90
35111;DHT22;21290;50.158;8.658;2023-01-05T10:21:00;13.80;99.90
35111;DHT22;21290;50.158;8.658;2023-01-05T10:28:30;13.00;99.90
35111;DHT22;21290;50.158;8.658;2023-01-05T10:30:58;12.70;99.90
35111;DHT22;21290;50.158;8.658;2023-01-05T10:36:52;12.30;99.90
35111;DHT22;21290;50.158;8.658;2023-01-05T10:39:27;12.10;99.90
35111;DHT22;21290;50.158;8.658;2023-01-05T10:41:57;12.10;99.90
35111;DHT22;21290;50.158;8.658;2023-01-05T10:46:54;12.30;99.90
35111;DHT22;21290;50.158;8.658;2023-01-05T10:49:25;12.20;99.90
35111;DHT22;21290;50.158;8.658;2023-01-05T10:51:54;12.30;99.90
35111;DHT22;21290;50.158;8.658;2023-01-05T10:56:52;12.50;99.90
35111;DHT22;21290;50.158;8.658;2023-01-05T10:59:18;12.60;99.90
35111;DHT22;21290;50.158;8.658;2023-01-05T11:01:46;12.60;99.90
35111;DHT22;21290;50.158;8.658;2023-01-05T11:04:18;12.60;99.90
35111;DHT22;21290;50.158;8.658;2023-01-05T11:07:02;12.60;99.90
35111;DHT22;21290;50.158;8.658;2023-01-05T11:09:29;12.70;99.90
35111;DHT22;21290;50.158;8.658;2023-01-05T11:11:56;12.80;99.90
35111;DHT22;21290;50.158;8.658;2023-01-05T11:14:23;12.70;99.90
35111;DHT22;21290;50.158;8.658;2023-01-05T11:16:50;12.60;99.90
35111;DHT22;21290;50.158;8.658;2023-01-05T11:19:24;12.50;99.90
35111;DHT22;21290;50.158;8.658;2023-01-05T11:21:52;12.30;99.90
35111;DHT22;21290;50.158;8.658;2023-01-05T11:24:31;12.20;99.90
35111;DHT22;21290;50.158;8.658;2023-01-05T11:27:01;12.10;99.90
35111;DHT22;21290;50.158;8.658;2023-01-05T11:29:28;12.10;99.90
35111;DHT22;21290;50.158;8.658;2023-01-05T11:32:05;12.00;99.90
35111;DHT22;21290;50.158;8.658;2023-01-05T11:34:40;12.10;99.90
35111;DHT22;21290;50.158;8.658;2023-01-05T11:42:19;12.10;99.90
35111;DHT22;21290;50.158;8.658;2023-01-05T11:44:55;12.10;99.90
35111;DHT22;21290;50.158;8.658;2023-01-05T11:47:24;12.00;99.90
35111;DHT22;21290;50.158;8.658;2023-01-05T11:52:46;12.00;99.90
35111;DHT22;21290;50.158;8.658;2023-01-05T11:57:50;12.00;99.90
35111;DHT22;21290;50.158;8.658;2023-01-05T12:08:11;12.10;99.90
35111;DHT22;21290;50.158;8.658;2023-01-05T12:11:01;12.00;99.90
35111;DHT22;21290;50.158;8.658;2023-01-05T12:13:36;12.00;99.90
35111;DHT22;21290;50.158;8.658;2023-01-05T12:21:06;12.00;99.90
35111;DHT22;21290;50.158;8.658;2023-01-05T12:28:44;12.20;99.90
35111;DHT22;21290;50.158;8.658;2023-01-05T12:34:33;12.70;99.90
35111;DHT22;21290;50.158;8.658;2023-01-05T12:39:54;13.70;99.90
35111;DHT22;21290;50.158;8.658;2023-01-05T12:49:59;13.50;99.90
35111;DHT22;21290;50.158;8.658;2023-01-05T12:52:34;13.50;99.90
35111;DHT22;21290;50.158;8.658;2023-01-05T12:55:11;13.30;99.90
35111;DHT22;21290;50.158;8.658;2023-01-05T12:57:42;13.20;99.90
35111;DHT22;21290;50.158;8.658;2023-01-05T13:00:11;13.10;99.90
35111;DHT22;21290;50.158;8.658;2023-01-05T13:02:47;13.20;99.90
35111;DHT22;21290;50.158;8.658;2023-01-05T13:05:31;13.20;99.90
35111;DHT22;21290;50.158;8.658;2023-01-05T13:08:04;13.10;99.90
35111;DHT22;21290;50.158;8.658;2023-01-05T13:13:03;12.90;99.90
35111;DHT22;21290;50.158;8.658;2023-01-05T13:18:02;12.80;99.90
35111;DHT22;21290;50.158;8.658;2023-01-05T13:20:34;12.80;99.90
35111;DHT22;21290;50.158;8.658;2023-01-05T13:23:03;12.90;99.90
35111;DHT22;21290;50.158;8.658;2023-01-05T13:25:34;12.90;99.90
35111;DHT22;21290;50.158;8.658;2023-01-05T13:28:02;12.80;99.90
35111;DHT22;21290;50.158;8.658;2023-01-05T13:30:30;12.80;99.90
35111;DHT22;21290;50.158;8.658;2023-01-05T13:48:49;13.10;99.90
35111;DHT22;21290;50.158;8.658;2023-01-05T13:51:33;13.10;99.90
35111;DHT22;21290;50.158;8.658;2023-01-05T13:54:03;13.10;99.90
35111;DHT22;21290;50.158;8.658;2023-01-05T13:56:30;13.00;99.90
35111;DHT22;21290;50.158;8.658;2023-01-05T13:59:02;12.90;99.90
35111;DHT22;21290;50.158;8.658;2023-01-05T14:01:36;12.90;99.90
35111;DHT22;21290;50.158;8.658;2023-01-05T14:04:04;12.80;99.90
35111;DHT22;21290;50.158;8.658;2023-01-05T14:06:33;12.80;99.90
35111;DHT22;21290;50.158;8.658;2023-01-05T14:09:07;12.70;99.90
35111;DHT22;21290;50.158;8.658;2023-01-05T14:11:37;12.70;99.90
35111;DHT22;21290;50.158;8.658;2023-01-05T14:14:24;12.60;99.90
35111;DHT22;21290;50.158;8.658;2023-01-05T14:16:52;12.60;99.90
35111;DHT22;21290;50.158;8.658;2023-01-05T14:20:04;12.60;99.90
35111;DHT22;21290;50.158;8.658;2023-01-05T14:22:51;12.40;99.90
35111;DHT22;21290;50.158;8.658;2023-01-05T14:24:52;12.30;99.90
35111;DHT22;21290;50.158;8.658;2023-01-05T14:27:22;12.20;99.90
35111;DHT22;21290;50.158;8.658;2023-01-05T14:40:34;12.00;99.90
35111;DHT22;21290;50.158;8.658;2023-01-05T14:43:00;11.90;99.90
35111;DHT22;21290;50.158;8.658;2023-01-05T14:45:28;11.80;99.90
35111;DHT22;21290;50.158;8.658;2023-01-05T14:48:00;11.80;99.90
35111;DHT22;21290;50.158;8.658;2023-01-05T14:50:30;11.70;99.90
35111;DHT22;21290;50.158;8.658;2023-01-05T14:52:59;11.60;99.90
35111;DHT22;21290;50.158;8.658;2023-01-05T14:55:30;11.70;99.90
35111;DHT22;21290;50.158;8.658;2023-01-05T14:58:45;11.60;99.90
35111;DHT22;21290;50.158;8.658;2023-01-05T15:01:11;11.60;99.90
35111;DHT22;21290;50.158;8.658;2023-01-05T15:03:46;11.50;99.90
35111;DHT22;21290;50.158;8.658;2023-01-05T15:06:17;11.50;99.90
35111;DHT22;21290;50.158;8.658;2023-01-05T15:17:44;11.40;99.90
35111;DHT22;21290;50.158;8.658;2023-01-05T15:25:31;11.30;99.90
35111;DHT22;21290;50.158;8.658;2023-01-05T15:28:14;11.30;99.90
35111;DHT22;21290;50.158;8.658;2023-01-05T15:30:56;11.20;99.90
35111;DHT22;21290;50.158;8.658;2023-01-05T15:33:34;11.20;99.90
35111;DHT22;21290;50.158;8.658;2023-01-05T15:36:03;11.10;99.90
35111;DHT22;21290;50.158;8.658;2023-01-05T15:38:30;11.10;99.90
35111;DHT22;21290;50.158;8.658;2023-01-05T15:41:04;11.10;99.90
35111;DHT22;21290;50.158;8.658;2023-01-05T15:43:31;11.10;99.90
35111;DHT22;21290;50.158;8.658;2023-01-05T15:45:58;11.10;99.90
35111;DHT22;21290;50.158;8.658;2023-01-05T15:48:34;11.10;99.90
35111;DHT22;21290;50.158;8.658;2023-01-05T15:51:01;11.10;99.90
35111;DHT22;21290;50.158;8.658;2023-01-05T15:53:29;11.10;99.90
35111;DHT22;21290;50.158;8.658;2023-01-05T15:55:57;11.10;99.90
35111;DHT22;21290;50.158;8.658;2023-01-05T15:58:24;11.10;99.90
35111;DHT22;21290;50.158;8.658;2023-01-05T16:03:27;11.00;99.90
35111;DHT22;21290;50.158;8.658;2023-01-05T16:05:55;11.10;99.90
35111;DHT22;21290;50.158;8.658;2023-01-05T16:08:22;11.00;99.90
35111;DHT22;21290;50.158;8.658;2023-01-05T16:10:50;11.10;99.90
35111;DHT22;21290;50.158;8.658;2023-01-05T16:13:23;11.00;99.90
35111;DHT22;21290;50.158;8.658;2023-01-05T16:15:53;11.00;99.90
35111;DHT22;21290;50.158;8.658;2023-01-05T16:18:35;11.00;99.90
35111;DHT22;21290;50.158;8.658;2023-01-05T16:21:04;11.00;99.90
35111;DHT22;21290;50.158;8.658;2023-01-05T16:26:01;10.90;99.90
35111;DHT22;21290;50.158;8.658;2023-01-05T16:28:28;10.90;99.90
35111;DHT22;21290;50.158;8.658;2023-01-05T16:30:55;10.80;99.90
35111;DHT22;21290;50.158;8.658;2023-01-05T16:33:32;10.80;99.90
35111;DHT22;21290;50.158;8.658;2023-01-05T16:36:07;10.80;99.90
35111;DHT22;21290;50.158;8.658;2023-01-05T16:38:34;10.70;99.90
35111;DHT22;21290;50.158;8.658;2023-01-05T16:41:08;10.70;99.90
35111;DHT22;21290;50.158;8.658;2023-01-05T16:51:05;10.70;99.90
35111;DHT22;21290;50.158;8.658;2023-01-05T16:53:32;10.70;99.90
35111;DHT22;21290;50.158;8.658;2023-01-05T16:56:00;10.70;99.90
35111;DHT22;21290;50.158;8.658;2023-01-05T17:01:32;10.70;99.90
35111;DHT22;21290;50.158;8.658;2023-01-05T17:03:49;10.70;99.90
35111;DHT22;21290;50.158;8.658;2023-01-05T17:08:42;10.70;99.90
35111;DHT22;21290;50.158;8.658;2023-01-05T17:11:09;10.70;99.90
35111;DHT22;21290;50.158;8.658;2023-01-05T17:13:48;10.60;99.90
35111;DHT22;21290;50.158;8.658;2023-01-05T17:16:15;10.70;99.90
35111;DHT22;21290;50.158;8.658;2023-01-05T17:18:42;10.70;99.90
35111;DHT22;21290;50.158;8.658;2023-01-05T17:21:11;10.70;99.90
35111;DHT22;21290;50.158;8.658;2023-01-05T17:23:38;10.70;99.90
35111;DHT22;21290;50.158;8.658;2023-01-05T17:26:08;10.70;99.90
35111;DHT22;21290;50.158;8.658;2023-01-05T17:28:36;10.70;99.90
35111;DHT22;21290;50.158;8.658;2023-01-05T17:31:04;10.70;99.90
35111;DHT22;21290;50.158;8.658;2023-01-05T17:33:30;10.70;99.90
35111;DHT22;21290;50.158;8.658;2023-01-05T17:35:57;10.60;99.90
35111;DHT22;21290;50.158;8.658;2023-01-05T17:38:24;10.60;99.90
35111;DHT22;21290;50.158;8.658;2023-01-05T17:40:50;10.70;99.90
35111;DHT22;21290;50.158;8.658;2023-01-05T17:43:17;10.70;99.90
35111;DHT22;21290;50.158;8.658;2023-01-05T17:45:46;10.60;99.90
35111;DHT22;21290;50.158;8.658;2023-01-05T17:48:13;10.70;99.90
35111;DHT22;21290;50.158;8.658;2023-01-05T17:50:42;10.70;99.90
35111;DHT22;21290;50.158;8.658;2023-01-05T17:53:09;10.60;99.90
35111;DHT22;21290;50.158;8.658;2023-01-05T17:55:36;10.60;99.90
35111;DHT22;21290;50.158;8.658;2023-01-05T17:58:03;10.60;99.90
35111;DHT22;21290;50.158;8.658;2023-01-05T18:00:30;10.50;99.90
35111;DHT22;21290;50.158;8.658;2023-01-05T18:02:59;10.50;99.90